sensor_id;sensor_type;location;lat;lon;timestamp;pressure;altitude;pressure_sealevel;temperature;humidity
74913;BME280;63878;55.624;37.304;2023-03-23T00:06:36;98744.47;;;0.81;59.44
74913;BME280;63878;55.624;37.304;2023-03-23T00:16:37;98734.41;;;0.74;58.60
74913;BME280;63878;55.624;37.304;2023-03-23T00:26:40;98724.72;;;1.10;57.86
74913;BME280;63878;55.624;37.304;2023-03-23T00:36:40;98712.94;;;1.18;57.84
74913;BME280;63878;55.624;37.304;2023-03-23T00:46:41;98709.53;;;1.02;57.96
74913;BME280;63878;55.624;37.304;2023-03-23T00:56:41;98690.72;;;1.13;56.91
74913;BME280;63878;55.624;37.304;2023-03-23T01:06:43;98699.69;;;1.07;58.24
74913;BME280;63878;55.624;37.304;2023-03-23T01:16:44;98706.22;;;1.14;57.99
74913;BME280;63878;55.624;37.304;2023-03-23T01:26:45;98685.88;;;1.07;58.73
74913;BME280;63878;55.624;37.304;2023-03-23T01:36:45;98683.84;;;1.12;58.35
74913;BME280;63878;55.624;37.304;2023-03-23T01:46:46;98664.91;;;1.10;58.15
74913;BME280;63878;55.624;37.304;2023-03-23T01:56:54;98663.75;;;1.15;58.40
74913;BME280;63878;55.624;37.304;2023-03-23T02:06:56;98644.78;;;1.13;58.33
74913;BME280;63878;55.624;37.304;2023-03-23T02:17:06;98644.97;;;1.10;59.30
74913;BME280;63878;55.624;37.304;2023-03-23T02:27:19;98657.31;;;1.21;58.99
74913;BME280;63878;55.624;37.304;2023-03-23T02:37:28;98662.09;;;0.98;59.44
74913;BME280;63878;55.624;37.304;2023-03-23T02:47:31;98659.50;;;0.98;59.54
74913;BME280;63878;55.624;37.304;2023-03-23T02:57:33;98655.47;;;0.93;59.85
74913;BME280;63878;55.624;37.304;2023-03-23T03:18:31;98641.75;;;0.91;60.26
74913;BME280;63878;55.624;37.304;2023-03-23T03:28:34;98630.91;;;0.67;60.91
74913;BME280;63878;55.624;37.304;2023-03-23T03:38:45;98641.88;;;0.88;61.03
74913;BME280;63878;55.624;37.304;2023-03-23T03:48:46;98628.31;;;0.83;61.84
74913;BME280;63878;55.624;37.304;2023-03-23T03:58:47;98597.50;;;0.61;61.59
74913;BME280;63878;55.624;37.304;2023-03-23T04:08:47;98622.19;;;0.84;62.10
74913;BME280;63878;55.624;37.304;2023-03-23T04:18:48;98620.78;;;1.38;60.85
74913;BME280;63878;55.624;37.304;2023-03-23T04:28:49;98609.47;;;1.68;59.83
74913;BME280;63878;55.624;37.304;2023-03-23T04:38:49;98605.25;;;2.36;59.04
74913;BME280;63878;55.624;37.304;2023-03-23T04:48:50;98611.72;;;2.44;57.88
74913;BME280;63878;55.624;37.304;2023-03-23T04:58:50;98602.75;;;2.75;56.82
74913;BME280;63878;55.624;37.304;2023-03-23T05:08:51;98617.22;;;2.66;57.66
74913;BME280;63878;55.624;37.304;2023-03-23T05:18:51;98618.34;;;2.62;57.88
74913;BME280;63878;55.624;37.304;2023-03-23T05:28:52;98611.03;;;2.81;57.30
74913;BME280;63878;55.624;37.304;2023-03-23T05:38:53;98609.47;;;3.18;55.63
74913;BME280;63878;55.624;37.304;2023-03-23T05:48:54;98622.78;;;2.74;57.38
74913;BME280;63878;55.624;37.304;2023-03-23T05:58:54;98610.16;;;3.08;56.81
74913;BME280;63878;55.624;37.304;2023-03-23T06:08:56;98605.72;;;3.23;56.33
74913;BME280;63878;55.624;37.304;2023-03-23T06:18:57;98610.50;;;2.89;57.10
74913;BME280;63878;55.624;37.304;2023-03-23T06:28:57;98595.13;;;3.38;56.40
74913;BME280;63878;55.624;37.304;2023-03-23T06:38:59;98598.72;;;3.23;57.66
74913;BME280;63878;55.624;37.304;2023-03-23T06:49:00;98592.50;;;3.51;55.58
74913;BME280;63878;55.624;37.304;2023-03-23T06:59:00;98585.41;;;3.53;55.71
74913;BME280;63878;55.624;37.304;2023-03-23T07:09:01;98582.00;;;4.02;54.53
74913;BME280;63878;55.624;37.304;2023-03-23T07:19:01;98583.69;;;4.03;53.63
74913;BME280;63878;55.624;37.304;2023-03-23T07:29:02;98581.44;;;3.73;55.19
74913;BME280;63878;55.624;37.304;2023-03-23T07:39:04;98568.44;;;3.97;52.84
74913;BME280;63878;55.624;37.304;2023-03-23T07:49:05;98552.94;;;4.07;53.37
74913;BME280;63878;55.624;37.304;2023-03-23T07:59:06;98556.91;;;4.12;52.44
74913;BME280;63878;55.624;37.304;2023-03-23T08:09:07;98545.13;;;4.07;53.27
74913;BME280;63878;55.624;37.304;2023-03-23T08:19:08;98539.31;;;4.27;52.44
74913;BME280;63878;55.624;37.304;2023-03-23T08:29:08;98525.88;;;4.79;51.25
74913;BME280;63878;55.624;37.304;2023-03-23T08:39:10;98524.28;;;4.42;51.23
74913;BME280;63878;55.624;37.304;2023-03-23T08:49:10;98495.59;;;4.88;53.81
74913;BME280;63878;55.624;37.304;2023-03-23T08:59:11;98479.44;;;4.94;49.23
74913;BME280;63878;55.624;37.304;2023-03-23T09:09:12;98473.03;;;4.98;50.55
74913;BME280;63878;55.624;37.304;2023-03-23T09:19:13;98450.25;;;5.45;50.01
74913;BME280;63878;55.624;37.304;2023-03-23T09:29:13;98446.16;;;5.07;48.57
74913;BME280;63878;55.624;37.304;2023-03-23T09:39:14;98432.06;;;5.44;48.67
74913;BME280;63878;55.624;37.304;2023-03-23T09:49:19;98413.81;;;5.53;48.82
74913;BME280;63878;55.624;37.304;2023-03-23T09:59:27;98403.91;;;6.11;48.23
74913;BME280;63878;55.624;37.304;2023-03-23T10:09:29;98402.41;;;5.98;46.44
74913;BME280;63878;55.624;37.304;2023-03-23T10:19:47;98384.84;;;6.09;46.76
74913;BME280;63878;55.624;37.304;2023-03-23T10:30:00;98371.78;;;6.30;46.12
74913;BME280;63878;55.624;37.304;2023-03-23T10:40:04;98375.66;;;6.36;45.75
74913;BME280;63878;55.624;37.304;2023-03-23T10:50:06;98377.53;;;6.24;44.63
74913;BME280;63878;55.624;37.304;2023-03-23T11:00:25;98382.78;;;6.45;44.72
74913;BME280;63878;55.624;37.304;2023-03-23T11:10:34;98372.28;;;6.45;44.08
74913;BME280;63878;55.624;37.304;2023-03-23T11:20:38;98384.75;;;6.11;45.30
74913;BME280;63878;55.624;37.304;2023-03-23T11:30:39;98356.56;;;6.45;45.23
74913;BME280;63878;55.624;37.304;2023-03-23T11:40:48;98371.63;;;6.73;45.02
74913;BME280;63878;55.624;37.304;2023-03-23T11:50:52;98377.00;;;6.93;47.07
74913;BME280;63878;55.624;37.304;2023-03-23T12:00:58;98375.59;;;6.68;43.95
74913;BME280;63878;55.624;37.304;2023-03-23T12:31:29;98344.03;;;7.00;44.45
74913;BME280;63878;55.624;37.304;2023-03-23T12:41:45;98343.94;;;6.81;45.20
74913;BME280;63878;55.624;37.304;2023-03-23T13:12:44;98318.53;;;6.81;45.49
74913;BME280;63878;55.624;37.304;2023-03-23T13:22:57;98321.22;;;6.91;44.17
74913;BME280;63878;55.624;37.304;2023-03-23T13:33:06;98303.72;;;6.70;45.00
74913;BME280;63878;55.624;37.304;2023-03-23T13:43:12;98295.16;;;6.48;45.98
74913;BME280;63878;55.624;37.304;2023-03-23T13:53:20;98314.16;;;6.40;46.32
74913;BME280;63878;55.624;37.304;2023-03-23T14:03:32;98310.00;;;6.58;46.32
74913;BME280;63878;55.624;37.304;2023-03-23T14:23:43;98270.94;;;6.86;46.95
74913;BME280;63878;55.624;37.304;2023-03-23T14:33:44;98258.06;;;6.83;46.89
74913;BME280;63878;55.624;37.304;2023-03-23T14:43:44;98252.47;;;6.66;47.24
74913;BME280;63878;55.624;37.304;2023-03-23T14:53:45;98243.63;;;6.58;47.28
74913;BME280;63878;55.624;37.304;2023-03-23T15:03:58;98254.63;;;6.52;47.67
74913;BME280;63878;55.624;37.304;2023-03-23T15:14:07;98245.19;;;6.39;47.90
74913;BME280;63878;55.624;37.304;2023-03-23T15:34:37;98236.91;;;6.13;48.74
74913;BME280;63878;55.624;37.304;2023-03-23T15:44:38;98228.28;;;6.02;48.38
74913;BME280;63878;55.624;37.304;2023-03-23T15:54:46;98227.63;;;6.09;48.65
74913;BME280;63878;55.624;37.304;2023-03-23T16:04:49;98228.47;;;5.89;48.67
74913;BME280;63878;55.624;37.304;2023-03-23T16:14:50;98218.31;;;5.75;48.19
74913;BME280;63878;55.624;37.304;2023-03-23T16:24:50;98218.72;;;5.91;48.72
74913;BME280;63878;55.624;37.304;2023-03-23T16:34:51;98220.50;;;5.70;48.29
74913;BME280;63878;55.624;37.304;2023-03-23T16:44:52;98204.06;;;5.47;49.56
74913;BME280;63878;55.624;37.304;2023-03-23T16:54:52;98203.41;;;5.33;49.26
74913;BME280;63878;55.624;37.304;2023-03-23T17:04:53;98171.34;;;5.20;50.44
74913;BME280;63878;55.624;37.304;2023-03-23T17:14:53;98180.31;;;5.39;50.26
74913;BME280;63878;55.624;37.304;2023-03-23T17:24:54;98166.94;;;5.21;49.79
74913;BME280;63878;55.624;37.304;2023-03-23T17:34:54;98150.34;;;5.10;50.81
74913;BME280;63878;55.624;37.304;2023-03-23T17:44:55;98150.59;;;4.96;51.04
74913;BME280;63878;55.624;37.304;2023-03-23T17:54:56;98130.25;;;5.11;51.48
74913;BME280;63878;55.624;37.304;2023-03-23T18:04:57;98125.91;;;5.21;52.45
74913;BME280;63878;55.624;37.304;2023-03-23T18:14:58;98125.25;;;5.08;52.47
74913;BME280;63878;55.624;37.304;2023-03-23T18:24:58;98113.88;;;4.98;52.05
74913;BME280;63878;55.624;37.304;2023-03-23T18:34:59;98098.56;;;4.93;52.45
74913;BME280;63878;55.624;37.304;2023-03-23T18:44:59;98105.09;;;4.99;52.33
74913;BME280;63878;55.624;37.304;2023-03-23T18:55:00;98086.75;;;4.78;53.09
74913;BME280;63878;55.624;37.304;2023-03-23T19:05:01;98067.00;;;4.85;52.93
74913;BME280;63878;55.624;37.304;2023-03-23T19:15:02;98048.41;;;5.09;54.16
74913;BME280;63878;55.624;37.304;2023-03-23T19:25:07;98065.81;;;5.31;53.32
74913;BME280;63878;55.624;37.304;2023-03-23T19:35:08;98040.34;;;5.12;53.36
74913;BME280;63878;55.624;37.304;2023-03-23T19:45:08;98036.91;;;5.12;53.03
74913;BME280;63878;55.624;37.304;2023-03-23T19:55:09;98025.47;;;5.13;53.43
74913;BME280;63878;55.624;37.304;2023-03-23T20:05:10;98014.69;;;5.06;51.80
74913;BME280;63878;55.624;37.304;2023-03-23T20:15:11;98001.84;;;5.03;56.46
74913;BME280;63878;55.624;37.304;2023-03-23T20:25:12;97984.00;;;4.87;57.33
74913;BME280;63878;55.624;37.304;2023-03-23T20:35:12;98020.09;;;4.72;52.88
74913;BME280;63878;55.624;37.304;2023-03-23T20:45:14;98001.50;;;4.87;53.76
74913;BME280;63878;55.624;37.304;2023-03-23T20:55:14;97977.25;;;5.05;53.69
74913;BME280;63878;55.624;37.304;2023-03-23T21:05:15;97970.28;;;4.95;55.09
74913;BME280;63878;55.624;37.304;2023-03-23T21:15:16;97959.56;;;5.19;54.92
74913;BME280;63878;55.624;37.304;2023-03-23T21:25:16;97947.88;;;5.02;54.91
74913;BME280;63878;55.624;37.304;2023-03-23T21:35:18;97936.09;;;5.07;55.67
74913;BME280;63878;55.624;37.304;2023-03-23T21:45:19;97902.50;;;4.82;55.57
74913;BME280;63878;55.624;37.304;2023-03-23T21:55:20;97911.00;;;4.74;57.08
74913;BME280;63878;55.624;37.304;2023-03-23T22:05:20;97893.06;;;4.91;57.94
74913;BME280;63878;55.624;37.304;2023-03-23T22:15:21;97885.13;;;4.71;57.81
74913;BME280;63878;55.624;37.304;2023-03-23T22:25:21;97892.16;;;4.71;58.22
74913;BME280;63878;55.624;37.304;2023-03-23T22:35:22;97859.22;;;4.68;58.42
74913;BME280;63878;55.624;37.304;2023-03-23T22:45:23;97843.84;;;4.44;59.59
74913;BME280;63878;55.624;37.304;2023-03-23T22:55:23;97832.81;;;4.41;59.73
74913;BME280;63878;55.624;37.304;2023-03-23T23:05:24;97809.25;;;4.31;60.41
74913;BME280;63878;55.624;37.304;2023-03-23T23:15:25;97799.16;;;4.47;60.56
74913;BME280;63878;55.624;37.304;2023-03-23T23:25:26;97779.59;;;4.42;60.98
74913;BME280;63878;55.624;37.304;2023-03-23T23:35:27;97767.94;;;4.46;60.40
74913;BME280;63878;55.624;37.304;2023-03-23T23:45:28;97725.97;;;4.38;60.65
74913;BME280;63878;55.624;37.304;2023-03-23T23:55:28;97702.84;;;4.33;61.36
